Time;durP1;ratioP1;P1;durP2;ratioP2;P2;SDS_P1;SDS_P2;PMS_P1;PMS_P2;Temp;Humidity;BMP_temperature;BMP_pressure;BME280_temperature;BME280_humidity;BME280_pressure;Samples;Min_cycle;Max_cycle;Signal;HPM_P1;HPM_P2
2022/02/26 10:16:58;;;;;;;18.10;3.75;;;6.70;95.70;;;;;;5107607;27;1306814;-51
2022/02/26 10:19:26;;;;;;;25.45;4.72;;;6.70;95.70;;;;;;5111431;28;20058;-46
2022/02/26 10:21:56;;;;;;;18.83;3.67;;;6.80;95.40;;;;;;5125756;28;20070;-53
2022/02/26 10:24:22;;;;;;;20.52;5.15;;;7.00;94.90;;;;;;5130743;27;20035;-50
2022/02/26 10:26:49;;;;;;;16.52;4.65;;;7.10;93.90;;;;;;5131240;28;20039;-43
2022/02/26 10:29:16;;;;;;;23.95;4.47;;;7.20;93.60;;;;;;5131238;27;20043;-51
2022/02/26 10:31:43;;;;;;;19.70;4.80;;;7.30;93.80;;;;;;5131040;28;20089;-50
2022/02/26 10:34:10;;;;;;;15.57;4.22;;;7.30;93.60;;;;;;5130228;28;20031;-45
2022/02/26 10:36:37;;;;;;;17.88;4.05;;;7.50;92.20;;;;;;5131083;28;20104;-44
2022/02/26 10:39:03;;;;;;;17.73;4.40;;;7.60;92.10;;;;;;5130921;28;20040;-48
2022/02/26 10:41:32;;;;;;;19.25;4.45;;;7.70;91.40;;;;;;5129646;28;20565;-50
2022/02/26 10:44:01;;;;;;;17.58;4.80;;;7.80;91.10;;;;;;5131013;28;20484;-48
2022/02/26 10:46:28;;;;;;;15.43;3.70;;;7.90;90.30;;;;;;5131152;27;20067;-52
2022/02/26 10:48:55;;;;;;;12.52;3.58;;;8.00;88.70;;;;;;5129670;27;20112;-46
2022/02/26 10:51:22;;;;;;;14.30;3.65;;;8.00;88.40;;;;;;5130989;28;20482;-45
2022/02/26 10:53:49;;;;;;;10.85;4.03;;;8.10;86.50;;;;;;5130662;28;20041;-52
2022/02/26 10:56:16;;;;;;;15.05;3.20;;;8.10;85.70;;;;;;5130585;28;20115;-50
2022/02/26 10:58:43;;;;;;;11.88;3.17;;;8.20;83.20;;;;;;5130663;27;20046;-49
2022/02/26 11:01:10;;;;;;;20.42;3.85;;;8.20;83.70;;;;;;5130635;28;20040;-53
2022/02/26 11:03:38;;;;;;;12.65;3.15;;;8.20;83.70;;;;;;5129599;28;20039;-47
2022/02/26 11:06:06;;;;;;;14.13;3.42;;;8.20;84.00;;;;;;5129193;28;20039;-55
2022/02/26 11:08:32;;;;;;;15.10;3.80;;;8.20;83.70;;;;;;5130510;27;20042;-51
2022/02/26 11:10:59;;;;;;;15.25;4.30;;;8.30;84.10;;;;;;5130378;28;20110;-53
2022/02/26 11:13:26;;;;;;;21.75;3.97;;;8.30;83.40;;;;;;5130826;27;20045;-53
2022/02/26 11:15:53;;;;;;;17.88;3.78;;;8.30;84.10;;;;;;5129985;28;20047;-51
2022/02/26 11:18:20;;;;;;;14.20;3.47;;;8.30;83.90;;;;;;5129594;28;20047;-54
2022/02/26 11:20:46;;;;;;;20.58;3.45;;;8.40;85.00;;;;;;5130273;28;20043;-48
2022/02/26 11:23:13;;;;;;;11.48;2.88;;;8.50;84.70;;;;;;5123601;28;20473;-50
2022/02/26 11:25:40;;;;;;;14.35;3.00;;;8.50;82.70;;;;;;5124790;28;20035;-51
2022/02/26 11:28:07;;;;;;;14.48;3.63;;;8.60;82.00;;;;;;5117418;28;20047;-54
2022/02/26 11:30:34;;;;;;;14.57;3.22;;;8.70;82.00;;;;;;5115512;28;20517;-50
2022/02/26 11:33:01;;;;;;;16.50;4.00;;;8.80;81.90;;;;;;5116427;28;20517;-58
2022/02/26 11:35:27;;;;;;;17.23;3.78;;;8.90;81.90;;;;;;5115031;28;20040;-51
2022/02/26 11:37:56;;;;;;;17.42;3.17;;;8.90;81.40;;;;;;5115596;28;20036;-47
2022/02/26 11:40:23;;;;;;;14.15;3.40;;;9.00;81.20;;;;;;5116140;28;20039;-44
2022/02/26 11:42:49;;;;;;;14.93;3.08;;;9.10;78.90;;;;;;5112934;28;20544;-47
2022/02/26 11:45:16;;;;;;;13.77;2.95;;;9.10;77.90;;;;;;5113911;28;20039;-45
2022/02/26 11:47:43;;;;;;;13.90;3.20;;;9.10;78.40;;;;;;5114264;28;20066;-51
2022/02/26 11:50:10;;;;;;;12.05;3.00;;;9.10;79.70;;;;;;5113663;28;20047;-54
2022/02/26 11:52:37;;;;;;;13.45;2.92;;;9.20;79.70;;;;;;5113803;28;20046;-49
2022/02/26 11:55:04;;;;;;;13.60;2.97;;;9.20;79.00;;;;;;5113645;28;20066;-56
2022/02/26 11:57:30;;;;;;;13.93;2.92;;;9.30;78.70;;;;;;5115031;28;20031;-50
2022/02/26 11:59:57;;;;;;;17.17;3.00;;;9.40;77.60;;;;;;5115298;28;20039;-53
2022/02/26 12:02:24;;;;;;;14.82;3.45;;;9.40;79.00;;;;;;5115764;28;20070;-49
2022/02/26 12:04:53;;;;;;;13.38;2.80;;;9.40;76.90;;;;;;5115626;28;20043;-49
2022/02/26 12:07:20;;;;;;;10.73;3.30;;;9.50;78.90;;;;;;5115733;28;20561;-50
2022/02/26 12:09:47;;;;;;;12.68;3.20;;;9.50;77.80;;;;;;5115525;28;20089;-50
2022/02/26 12:12:14;;;;;;;8.80;2.60;;;9.60;76.20;;;;;;5115518;28;20045;-49
2022/02/26 12:14:41;;;;;;;11.98;3.05;;;9.70;76.10;;;;;;5115553;28;20059;-46
2022/02/26 12:17:10;;;;;;;15.00;3.95;;;9.70;76.20;;;;;;5114276;28;20048;-56
2022/02/26 12:19:37;;;;;;;13.13;3.05;;;9.60;76.30;;;;;;5115259;28;20039;-48
2022/02/26 12:22:04;;;;;;;13.10;3.05;;;9.60;76.10;;;;;;5115115;28;20043;-56
2022/02/26 12:24:31;;;;;;;13.02;3.03;;;9.60;76.30;;;;;;5115548;28;20031;-49
2022/02/26 12:27:24;;;;;;;16.27;3.53;;;9.60;77.30;;;;;;5115400;28;20104;-51
2022/02/26 12:29:51;;;;;;;12.18;3.13;;;9.70;75.50;;;;;;5114978;28;20495;-50
2022/02/26 12:32:17;;;;;;;13.43;3.20;;;9.60;74.60;;;;;;5115122;28;20035;-51
2022/02/26 12:34:44;;;;;;;11.23;3.90;;;9.60;74.80;;;;;;5115238;28;20138;-45
2022/02/26 12:37:11;;;;;;;14.73;3.03;;;9.60;73.60;;;;;;5115033;28;20081;-43
2022/02/26 12:39:38;;;;;;;15.32;3.38;;;9.60;74.30;;;;;;5113938;28;20494;-47
2022/02/26 12:42:05;;;;;;;13.82;2.72;;;9.60;74.80;;;;;;5115160;28;20036;-51
2022/02/26 12:44:32;;;;;;;13.40;3.15;;;9.50;75.30;;;;;;5115022;28;20074;-47
2022/02/26 12:46:59;;;;;;;12.15;2.97;;;9.60;76.00;;;;;;5113717;28;20090;-42
2022/02/26 12:49:26;;;;;;;11.80;3.10;;;9.60;74.50;;;;;;5114769;28;20035;-53
2022/02/26 12:51:54;;;;;;;13.63;2.85;;;9.70;74.30;;;;;;5114763;28;20063;-48
2022/02/26 12:54:21;;;;;;;12.13;3.25;;;9.70;74.50;;;;;;5114621;28;20043;-49
2022/02/26 12:56:48;;;;;;;12.52;3.10;;;9.70;74.60;;;;;;5115039;28;20040;-49
2022/02/26 12:59:14;;;;;;;12.63;2.65;;;9.70;74.40;;;;;;5114512;28;20058;-48
2022/02/26 13:01:41;;;;;;;12.07;2.78;;;9.70;74.70;;;;;;5114538;28;20042;-44
2022/02/26 13:04:10;;;;;;;15.75;3.22;;;9.70;74.20;;;;;;5114754;28;20035;-52
2022/02/26 13:06:36;;;;;;;15.55;2.90;;;9.70;74.00;;;;;;5114455;28;20040;-45
2022/02/26 13:09:03;;;;;;;13.40;2.95;;;9.70;74.00;;;;;;5114399;28;20043;-50
2022/02/26 13:11:30;;;;;;;10.30;2.88;;;9.70;74.40;;;;;;5114347;28;20043;-51
2022/02/26 13:13:57;;;;;;;13.27;2.80;;;9.70;74.90;;;;;;5107978;28;20478;-46
2022/02/26 13:16:24;;;;;;;10.18;2.90;;;9.70;75.30;;;;;;5106377;28;20048;-46
2022/02/26 13:18:51;;;;;;;12.57;2.92;;;9.70;75.00;;;;;;5114270;28;20066;-46
2022/02/26 13:21:17;;;;;;;11.38;2.78;;;9.70;73.40;;;;;;5114134;28;20036;-47
2022/02/26 13:23:44;;;;;;;9.82;2.47;;;9.70;74.50;;;;;;5114169;28;20031;-49
2022/02/26 13:26:11;;;;;;;14.77;2.88;;;9.70;74.00;;;;;;5112860;28;20039;-53
2022/02/26 13:28:38;;;;;;;12.50;2.60;;;9.70;74.20;;;;;;5114136;28;20129;-52
2022/02/26 13:31:04;;;;;;;11.73;2.60;;;9.70;72.80;;;;;;5114007;28;20108;-48
2022/02/26 13:33:31;;;;;;;10.75;2.85;;;9.70;72.80;;;;;;5113949;28;20489;-49
2022/02/26 13:35:58;;;;;;;16.02;2.97;;;9.70;74.00;;;;;;5112722;28;20051;-53
2022/02/26 13:38:25;;;;;;;14.70;2.80;;;9.70;73.30;;;;;;5114000;28;20031;-51
2022/02/26 13:40:53;;;;;;;11.40;3.08;;;9.70;72.30;;;;;;5113843;28;20043;-55
2022/02/26 13:43:20;;;;;;;12.73;3.22;;;9.70;73.10;;;;;;5113773;28;20036;-50
2022/02/26 13:45:53;;;;;;;18.05;3.40;;;9.70;73.50;;;;;;5113838;28;20447;-53
2022/02/26 13:48:20;;;;;;;15.75;3.60;;;9.70;73.70;;;;;;5113563;28;20075;-45
2022/02/26 13:50:47;;;;;;;13.07;2.92;;;9.70;72.60;;;;;;5113201;28;20044;-44
2022/02/26 13:53:14;;;;;;;10.07;2.95;;;9.70;72.60;;;;;;5113647;28;20413;-55
2022/02/26 13:55:41;;;;;;;12.23;2.85;;;9.70;71.40;;;;;;5113623;28;20031;-46
2022/02/26 13:58:07;;;;;;;9.82;2.72;;;9.70;71.90;;;;;;5113592;28;20129;-52
2022/02/26 14:00:34;;;;;;;13.52;2.58;;;9.70;71.40;;;;;;5113583;28;20063;-44
2022/02/26 14:03:02;;;;;;;10.02;2.67;;;9.70;71.80;;;;;;5113512;28;20050;-48
2022/02/26 14:05:29;;;;;;;10.80;2.83;;;9.70;71.50;;;;;;5113613;28;20082;-47
2022/02/26 14:07:56;;;;;;;10.43;2.50;;;9.70;68.80;;;;;;5113413;28;20039;-48
2022/02/26 14:10:26;;;;;;;12.07;2.80;;;9.70;67.60;;;;;;5113495;28;20048;-45
2022/02/26 14:12:52;;;;;;;9.52;2.00;;;9.70;67.40;;;;;;5113527;28;20047;-50
2022/02/26 14:15:19;;;;;;;12.88;2.58;;;9.70;67.50;;;;;;5113397;28;20158;-51
2022/02/26 14:17:46;;;;;;;12.82;3.17;;;9.70;65.60;;;;;;5113196;28;20105;-49
2022/02/26 14:20:18;;;;;;;9.98;2.65;;;9.60;65.30;;;;;;5113220;28;20182;-46
2022/02/26 14:22:44;;;;;;;11.23;2.40;;;9.60;66.80;;;;;;5113371;28;20085;-53
2022/02/26 14:25:11;;;;;;;10.45;2.25;;;9.60;65.80;;;;;;5113359;28;20046;-50
2022/02/26 14:27:38;;;;;;;15.30;3.25;;;9.60;67.90;;;;;;5113282;28;20451;-50
2022/02/26 14:30:05;;;;;;;14.60;3.53;;;9.50;68.50;;;;;;5113268;28;20039;-50
2022/02/26 14:32:31;;;;;;;9.55;2.45;;;9.50;68.40;;;;;;5113076;28;20437;-51
2022/02/26 14:34:58;;;;;;;7.88;2.28;;;9.50;67.70;;;;;;5113217;28;20047;-52
2022/02/26 14:37:25;;;;;;;8.00;2.40;;;9.50;67.30;;;;;;5113095;28;20509;-49
2022/02/26 14:39:52;;;;;;;12.68;2.63;;;9.40;66.50;;;;;;5113417;28;20482;-51
2022/02/26 14:42:19;;;;;;;8.40;2.10;;;9.40;64.80;;;;;;5113204;28;20039;-54
2022/02/26 14:44:45;;;;;;;4.93;1.67;;;9.40;63.40;;;;;;5113118;28;20040;-48
2022/02/26 14:47:13;;;;;;;9.95;2.60;;;9.40;64.00;;;;;;5113139;28;20416;-53
2022/02/26 14:49:40;;;;;;;8.13;2.28;;;9.40;65.80;;;;;;5113042;28;20039;-53
2022/02/26 14:52:06;;;;;;;10.13;2.58;;;9.40;65.00;;;;;;5112993;28;20544;-53
2022/02/26 14:54:33;;;;;;;7.95;1.92;;;9.40;65.40;;;;;;5111877;28;20043;-47
2022/02/26 14:57:00;;;;;;;12.10;3.13;;;9.40;65.90;;;;;;5112997;28;20043;-49
2022/02/26 14:59:27;;;;;;;9.32;2.10;;;9.40;65.60;;;;;;5112978;28;20501;-53
2022/02/26 15:01:54;;;;;;;9.23;2.17;;;9.40;65.90;;;;;;5113633;28;20066;-49
2022/02/26 15:04:22;;;;;;;8.32;2.10;;;9.40;64.80;;;;;;5116804;28;20074;-50
2022/02/26 15:06:49;;;;;;;5.20;1.60;;;9.40;64.70;;;;;;5116895;28;20048;-48
2022/02/26 15:09:16;;;;;;;8.13;1.80;;;9.40;63.70;;;;;;5116771;28;20043;-49
2022/02/26 15:11:42;;;;;;;5.53;1.80;;;9.30;63.50;;;;;;5116778;28;20043;-48
2022/02/26 15:14:09;;;;;;;9.85;1.88;;;9.30;62.80;;;;;;5116666;28;20521;-55
2022/02/26 15:16:36;;;;;;;11.52;1.50;;;9.30;60.80;;;;;;5116341;28;20047;-51
2022/02/26 15:19:03;;;;;;;7.35;1.50;;;9.30;59.50;;;;;;5116405;28;20077;-51
2022/02/26 15:21:30;;;;;;;6.47;1.70;;;9.20;59.80;;;;;;5116528;28;20040;-52
2022/02/26 15:23:56;;;;;;;5.15;1.88;;;9.20;60.40;;;;;;5116641;28;20093;-49
2022/02/26 15:26:23;;;;;;;6.13;1.67;;;9.20;57.80;;;;;;5116459;28;20043;-46
2022/02/26 15:28:50;;;;;;;6.35;1.83;;;9.20;56.30;;;;;;5115220;28;20115;-48
2022/02/26 15:31:17;;;;;;;5.05;1.63;;;9.20;56.10;;;;;;5116245;28;20455;-52
2022/02/26 15:33:47;;;;;;;7.15;1.40;;;9.20;56.60;;;;;;5116225;28;20501;-57
2022/02/26 15:36:14;;;;;;;4.95;1.05;;;9.20;55.90;;;;;;5116168;28;20127;-50
2022/02/26 15:38:41;;;;;;;3.25;1.20;;;9.20;55.40;;;;;;5116230;28;20119;-52
2022/02/26 15:41:08;;;;;;;2.83;0.98;;;9.20;55.30;;;;;;5116754;28;20036;-50
2022/02/26 15:43:35;;;;;;;4.88;1.40;;;9.10;53.50;;;;;;5116188;27;20035;-52
2022/02/26 15:46:02;;;;;;;5.15;1.60;;;9.10;54.60;;;;;;5116291;28;20031;-52
2022/02/26 15:48:30;;;;;;;4.35;1.20;;;9.10;54.80;;;;;;5116120;28;20040;-49
2022/02/26 15:50:57;;;;;;;5.03;1.20;;;9.10;54.00;;;;;;5115884;28;20035;-51
2022/02/26 15:53:23;;;;;;;4.10;1.27;;;9.10;54.70;;;;;;5115969;28;20440;-51
2022/02/26 15:55:52;;;;;;;3.60;1.08;;;9.00;54.50;;;;;;5115779;28;20100;-54
2022/02/26 15:58:19;;;;;;;3.72;1.00;;;9.00;55.80;;;;;;5115352;28;20044;-50
2022/02/26 16:00:46;;;;;;;4.85;1.35;;;9.00;55.80;;;;;;5115602;28;20050;-46
2022/02/26 16:03:13;;;;;;;5.25;1.50;;;9.00;56.30;;;;;;5115652;28;20044;-49
2022/02/26 16:05:40;;;;;;;4.72;1.10;;;8.90;56.10;;;;;;5115861;28;20046;-47
2022/02/26 16:08:07;;;;;;;5.57;1.33;;;8.90;56.40;;;;;;5115693;28;20044;-47
2022/02/26 16:10:34;;;;;;;4.93;2.30;;;8.90;56.60;;;;;;5115419;28;20047;-48
2022/02/26 16:13:00;;;;;;;6.07;3.10;;;8.90;54.10;;;;;;5115365;28;20539;-51
2022/02/26 16:15:28;;;;;;;7.57;4.05;;;8.80;54.70;;;;;;5107572;28;20063;-53
2022/02/26 16:17:55;;;;;;;7.38;3.03;;;8.80;55.80;;;;;;5108706;28;20070;-53
2022/02/26 16:20:21;;;;;;;5.95;2.63;;;8.80;56.90;;;;;;5115543;28;20398;-50
2022/02/26 16:22:48;;;;;;;6.72;2.33;;;8.70;56.80;;;;;;5115231;28;20402;-50
2022/02/26 16:25:15;;;;;;;5.18;1.92;;;8.70;57.60;;;;;;5115263;28;20039;-52
2022/02/26 16:27:42;;;;;;;4.35;1.60;;;8.60;56.80;;;;;;5115254;28;20050;-49
2022/02/26 16:30:09;;;;;;;3.38;1.45;;;8.60;57.30;;;;;;5114971;28;20042;-51
2022/02/26 16:32:35;;;;;;;5.38;1.20;;;8.50;56.80;;;;;;5115111;28;20536;-48
2022/02/26 16:35:04;;;;;;;6.70;1.30;;;8.50;57.20;;;;;;5115108;28;20050;-52
2022/02/26 16:37:30;;;;;;;4.80;1.83;;;8.50;56.80;;;;;;5114910;28;20375;-52
2022/02/26 16:39:57;;;;;;;5.05;2.03;;;8.50;56.90;;;;;;5114688;28;20494;-49
2022/02/26 16:42:25;;;;;;;6.53;1.88;;;8.50;57.60;;;;;;5114964;28;20058;-51
2022/02/26 16:44:52;;;;;;;7.05;1.70;;;8.40;59.00;;;;;;5114952;28;20058;-45
2022/02/26 16:47:20;;;;;;;5.47;1.45;;;8.40;58.50;;;;;;5114891;28;20039;-47
2022/02/26 16:49:46;;;;;;;6.15;1.60;;;8.30;59.50;;;;;;5114746;28;20043;-47
2022/02/26 16:52:13;;;;;;;6.38;1.70;;;8.30;60.20;;;;;;5115310;28;20490;-46
2022/02/26 16:54:40;;;;;;;5.20;1.90;;;8.30;61.70;;;;;;5114540;28;20110;-50
2022/02/26 16:57:09;;;;;;;8.35;2.10;;;8.20;61.60;;;;;;5114597;28;20062;-50
2022/02/26 16:59:36;;;;;;;12.18;2.63;;;8.20;63.10;;;;;;5114483;28;20046;-46
2022/02/26 17:02:03;;;;;;;8.90;2.30;;;8.10;63.10;;;;;;5114668;28;20039;-52
2022/02/26 17:04:30;;;;;;;8.75;2.25;;;8.10;63.70;;;;;;5114439;28;20088;-50
2022/02/26 17:06:57;;;;;;;7.07;2.00;;;8.00;64.60;;;;;;5114843;28;20044;-48
2022/02/26 17:09:24;;;;;;;7.82;2.05;;;8.00;65.50;;;;;;5113034;28;20039;-50
2022/02/26 17:11:51;;;;;;;9.90;2.38;;;7.90;66.10;;;;;;5114454;28;20048;-52
2022/02/26 17:14:21;;;;;;;9.15;2.97;;;7.90;68.00;;;;;;5114429;28;20123;-52
2022/02/26 17:16:47;;;;;;;6.72;2.63;;;7.80;69.30;;;;;;5114010;28;20101;-53
2022/02/26 17:19:14;;;;;;;11.45;2.72;;;7.80;69.80;;;;;;5114178;28;20035;-50
2022/02/26 17:21:41;;;;;;;11.05;3.08;;;7.70;69.90;;;;;;5114143;28;20039;-46
2022/02/26 17:24:08;;;;;;;6.82;2.42;;;7.60;70.80;;;;;;5114074;28;20061;-47
2022/02/26 17:26:35;;;;;;;8.32;2.65;;;7.60;70.90;;;;;;5113940;28;20474;-54
2022/02/26 17:29:05;;;;;;;7.93;2.55;;;7.50;71.30;;;;;;5114050;28;20038;-52
2022/02/26 17:31:32;;;;;;;9.18;2.58;;;7.50;71.90;;;;;;5114101;28;20044;-55
2022/02/26 17:34:00;;;;;;;10.00;2.70;;;7.40;72.30;;;;;;5114113;27;20509;-51
2022/02/26 17:36:27;;;;;;;13.68;3.78;;;7.30;74.00;;;;;;5114015;28;20339;-50
2022/02/26 17:38:54;;;;;;;9.77;3.45;;;7.20;74.80;;;;;;5113995;28;20050;-52
2022/02/26 17:41:21;;;;;;;10.77;3.42;;;7.10;75.60;;;;;;5114098;28;20046;-53
2022/02/26 17:43:48;;;;;;;11.05;3.33;;;7.10;76.50;;;;;;5113846;28;20147;-56
2022/02/26 17:46:15;;;;;;;14.15;4.40;;;7.00;77.00;;;;;;5113804;28;20100;-52
2022/02/26 17:48:42;;;;;;;13.10;4.07;;;7.00;77.70;;;;;;5113645;28;20482;-51
2022/02/26 17:51:09;;;;;;;21.13;4.00;;;6.90;78.10;;;;;;5113953;28;20039;-48
2022/02/26 17:53:35;;;;;;;7.40;3.70;;;6.90;78.50;;;;;;5113709;28;20032;-50
2022/02/26 17:56:03;;;;;;;10.65;3.55;;;6.80;79.00;;;;;;5113718;28;20490;-51
2022/02/26 17:58:30;;;;;;;8.85;3.65;;;6.70;79.20;;;;;;5113560;28;20474;-53
2022/02/26 18:00:57;;;;;;;10.18;3.60;;;6.70;79.40;;;;;;5113482;28;20524;-51
2022/02/26 18:03:24;;;;;;;12.93;3.35;;;6.60;79.60;;;;;;5113483;28;20122;-52
2022/02/26 18:05:51;;;;;;;10.95;3.58;;;6.60;80.10;;;;;;5113567;28;20521;-49
2022/02/26 18:08:18;;;;;;;8.82;3.13;;;6.50;80.00;;;;;;5113661;28;20043;-52
2022/02/26 18:10:45;;;;;;;7.82;3.33;;;6.50;80.10;;;;;;5113501;28;20051;-55
2022/02/26 18:13:12;;;;;;;13.75;4.55;;;6.50;80.50;;;;;;5113286;28;20058;-50
2022/02/26 18:15:39;;;;;;;10.15;3.78;;;6.40;80.80;;;;;;5112015;28;20056;-49
2022/02/26 18:18:06;;;;;;;12.30;3.95;;;6.40;80.80;;;;;;5113168;28;20056;-44
2022/02/26 18:20:33;;;;;;;10.90;4.47;;;6.30;81.30;;;;;;5113663;28;20036;-49
2022/02/26 18:23:01;;;;;;;11.43;3.80;;;6.30;81.60;;;;;;5113538;28;20049;-58
2022/02/26 18:25:27;;;;;;;10.27;4.05;;;6.30;82.10;;;;;;5113583;28;20104;-45
2022/02/26 18:27:54;;;;;;;15.25;4.93;;;6.20;82.30;;;;;;5113592;28;20043;-54
2022/02/26 18:30:21;;;;;;;19.48;5.57;;;6.20;82.40;;;;;;5113428;28;20046;-53
2022/02/26 18:32:48;;;;;;;15.77;6.38;;;6.10;82.80;;;;;;5113175;28;20071;-45
2022/02/26 18:35:14;;;;;;;15.90;7.20;;;6.10;83.00;;;;;;5113431;28;20052;-53
2022/02/26 18:37:41;;;;;;;12.48;5.90;;;6.10;83.30;;;;;;5115684;28;20046;-50
2022/02/26 18:40:08;;;;;;;14.77;6.20;;;6.00;83.70;;;;;;5117484;28;20040;-43
2022/02/26 18:42:37;;;;;;;16.38;5.97;;;6.00;84.00;;;;;;5116054;28;20104;-45
2022/02/26 18:45:04;;;;;;;14.75;5.80;;;6.00;84.50;;;;;;5117205;28;20511;-49
2022/02/26 18:47:31;;;;;;;12.80;5.63;;;5.90;84.40;;;;;;5116158;28;20500;-46
2022/02/26 18:49:58;;;;;;;16.98;6.53;;;5.90;84.70;;;;;;5117190;28;20043;-46
2022/02/26 18:52:25;;;;;;;13.30;5.57;;;5.90;84.90;;;;;;5117017;28;20039;-50
2022/02/26 18:54:52;;;;;;;12.93;6.25;;;5.80;84.90;;;;;;5117148;28;20047;-50
2022/02/26 18:57:18;;;;;;;13.88;5.30;;;5.80;85.40;;;;;;5117135;28;20437;-50
2022/02/26 18:59:45;;;;;;;13.18;5.75;;;5.80;86.00;;;;;;5116685;28;20084;-48
2022/02/26 19:02:12;;;;;;;12.18;6.00;;;5.70;85.80;;;;;;5116966;28;20047;-53
2022/02/26 19:04:40;;;;;;;15.65;5.57;;;5.70;86.10;;;;;;5116965;28;20516;-47
2022/02/26 19:07:06;;;;;;;15.40;5.72;;;5.70;86.60;;;;;;5116867;28;20032;-51
2022/02/26 19:09:34;;;;;;;16.60;5.93;;;5.70;86.70;;;;;;5116642;28;20050;-51
2022/02/26 19:12:00;;;;;;;20.13;6.82;;;5.60;87.00;;;;;;5115296;28;20071;-47
2022/02/26 19:14:27;;;;;;;16.38;6.78;;;5.60;87.40;;;;;;5116586;28;20389;-47
2022/02/26 19:16:54;;;;;;;16.98;6.18;;;5.60;87.60;;;;;;5116302;28;20494;-53
2022/02/26 19:19:21;;;;;;;11.90;5.95;;;5.60;87.80;;;;;;5115100;28;20047;-54
2022/02/26 19:21:48;;;;;;;15.60;6.80;;;5.50;88.10;;;;;;5116805;28;20429;-50
2022/02/26 19:24:14;;;;;;;17.17;6.65;;;5.50;88.20;;;;;;5116495;28;20039;-53
2022/02/26 19:26:41;;;;;;;12.82;6.70;;;5.50;88.40;;;;;;5115015;28;20043;-56
2022/02/26 19:29:08;;;;;;;10.82;5.50;;;5.50;88.60;;;;;;5116360;28;20073;-54
2022/02/26 19:31:35;;;;;;;18.02;6.18;;;5.50;88.80;;;;;;5116330;28;20039;-47
2022/02/26 19:34:01;;;;;;;15.18;6.93;;;5.50;89.10;;;;;;5116139;28;20070;-53
2022/02/26 19:36:28;;;;;;;17.50;6.18;;;5.40;89.10;;;;;;5116087;28;20047;-48
2022/02/26 19:39:00;;;;;;;14.65;6.65;;;5.50;89.30;;;;;;5116128;28;20399;-52
2022/02/26 19:41:27;;;;;;;15.57;5.75;;;5.40;88.90;;;;;;5116130;28;20031;-47
2022/02/26 19:43:54;;;;;;;14.85;5.90;;;5.40;89.20;;;;;;5114799;28;20130;-52
2022/02/26 19:46:20;;;;;;;19.65;8.52;;;5.50;89.30;;;;;;5116256;28;20046;-51
2022/02/26 19:48:47;;;;;;;13.35;6.10;;;5.40;88.90;;;;;;5115502;28;20044;-50
2022/02/26 19:51:14;;;;;;;14.57;5.93;;;5.40;88.90;;;;;;5115901;28;20051;-52
2022/02/26 19:53:41;;;;;;;12.25;5.63;;;5.40;88.90;;;;;;5114592;28;20535;-47
2022/02/26 19:56:08;;;;;;;15.93;5.68;;;5.50;89.00;;;;;;5115918;28;20078;-48
2022/02/26 19:58:35;;;;;;;14.50;6.00;;;5.40;88.90;;;;;;5115536;28;20050;-52
2022/02/26 20:01:04;;;;;;;17.77;6.82;;;5.50;88.90;;;;;;5115766;28;20040;-53
2022/02/26 20:03:31;;;;;;;37.42;20.38;;;5.50;88.70;;;;;;5115866;28;20461;-51
2022/02/26 20:06:01;;;;;;;17.58;8.20;;;5.40;88.80;;;;;;5115836;28;20574;-53
2022/02/26 20:08:27;;;;;;;11.48;6.78;;;5.40;89.00;;;;;;5113756;28;20039;-52
2022/02/26 20:10:54;;;;;;;21.63;6.38;;;5.40;89.00;;;;;;5104973;28;20056;-52
2022/02/26 20:13:21;;;;;;;12.18;5.90;;;5.40;88.90;;;;;;5110060;28;20126;-55
2022/02/26 20:15:48;;;;;;;15.38;5.20;;;5.40;88.60;;;;;;5114653;28;20417;-51
2022/02/26 20:18:15;;;;;;;13.70;5.47;;;5.40;88.50;;;;;;5115595;28;20035;-47
2022/02/26 20:20:41;;;;;;;14.23;5.95;;;5.40;88.30;;;;;;5115337;28;20035;-56
2022/02/26 20:23:08;;;;;;;18.63;5.50;;;5.40;88.40;;;;;;5115295;28;20151;-47
2022/02/26 20:25:36;;;;;;;16.52;6.20;;;5.40;88.30;;;;;;5115594;28;20040;-51
2022/02/26 20:28:02;;;;;;;13.00;5.47;;;5.40;88.40;;;;;;5115381;28;20051;-48
2022/02/26 20:30:29;;;;;;;15.07;4.88;;;5.30;88.40;;;;;;5113971;28;20047;-51
2022/02/26 20:32:56;;;;;;;12.90;5.10;;;5.30;88.40;;;;;;5115751;28;20062;-49
2022/02/26 20:35:23;;;;;;;11.45;4.85;;;5.30;88.60;;;;;;5108529;28;20509;-52
2022/02/26 20:37:49;;;;;;;14.48;4.60;;;5.30;88.70;;;;;;5114485;28;20055;-48
2022/02/26 20:40:17;;;;;;;12.95;5.00;;;5.30;88.80;;;;;;5113945;28;20062;-50
2022/02/26 20:42:44;;;;;;;14.57;6.10;;;5.20;88.80;;;;;;5114035;28;20035;-48
2022/02/26 20:45:11;;;;;;;15.85;5.00;;;5.20;88.80;;;;;;5115270;28;20367;-46
2022/02/26 20:47:38;;;;;;;12.15;4.35;;;5.20;88.90;;;;;;5114437;28;20124;-53
2022/02/26 20:50:04;;;;;;;13.90;4.82;;;5.20;89.80;;;;;;5114256;28;20039;-46
2022/02/26 20:52:31;;;;;;;15.73;4.47;;;5.20;89.30;;;;;;5113295;28;20039;-45
2022/02/26 20:54:59;;;;;;;9.80;4.25;;;5.10;89.40;;;;;;5114646;28;20040;-53
2022/02/26 20:57:25;;;;;;;14.32;4.65;;;5.10;89.30;;;;;;5114700;28;20393;-46
2022/02/26 20:59:52;;;;;;;9.75;4.68;;;5.10;90.10;;;;;;5114005;28;20042;-50
2022/02/26 21:02:19;;;;;;;8.02;4.53;;;5.10;89.70;;;;;;5114890;28;20071;-47
2022/02/26 21:04:46;;;;;;;13.32;5.32;;;5.10;90.00;;;;;;5114629;28;20155;-51
2022/02/26 21:07:13;;;;;;;13.25;5.95;;;5.10;89.90;;;;;;5113592;28;20036;-49
2022/02/26 21:09:40;;;;;;;14.85;5.68;;;5.00;90.00;;;;;;5114532;28;20046;-47
2022/02/26 21:12:07;;;;;;;10.40;4.97;;;5.10;90.10;;;;;;5114745;28;20044;-52
2022/02/26 21:14:34;;;;;;;13.50;6.32;;;5.00;90.10;;;;;;5114817;28;20050;-52
2022/02/26 21:17:00;;;;;;;12.50;4.82;;;5.00;90.20;;;;;;5113893;28;20054;-52
2022/02/26 21:19:27;;;;;;;13.02;6.43;;;5.00;90.20;;;;;;5114127;28;20035;-45
2022/02/26 21:21:54;;;;;;;12.82;4.60;;;5.00;90.20;;;;;;5113734;28;20035;-49
2022/02/26 21:24:22;;;;;;;11.63;4.60;;;5.00;90.20;;;;;;5114464;28;20044;-46
2022/02/26 21:26:49;;;;;;;12.80;4.28;;;5.00;90.30;;;;;;5114160;28;20122;-51
2022/02/26 21:29:16;;;;;;;13.73;4.05;;;4.90;90.30;;;;;;5114233;28;20043;-53
2022/02/26 21:31:42;;;;;;;11.45;4.20;;;4.90;90.30;;;;;;5114301;28;20039;-53
2022/02/26 21:34:09;;;;;;;12.23;3.75;;;4.90;90.40;;;;;;5112370;28;20036;-48
2022/02/26 21:36:36;;;;;;;10.38;4.07;;;4.90;90.40;;;;;;5114226;28;20039;-55
2022/02/26 21:39:03;;;;;;;11.43;3.65;;;4.90;90.40;;;;;;5114067;28;20092;-48
2022/02/26 21:41:30;;;;;;;11.32;4.35;;;4.90;90.40;;;;;;5113340;28;20039;-51
2022/02/26 21:43:57;;;;;;;12.68;3.75;;;4.90;90.40;;;;;;5113906;28;20093;-51
2022/02/26 21:46:24;;;;;;;13.73;4.00;;;4.90;90.40;;;;;;5113936;28;20084;-50
2022/02/26 21:48:50;;;;;;;11.43;3.70;;;4.90;90.40;;;;;;5113854;28;20047;-46
2022/02/26 21:51:17;;;;;;;8.02;3.45;;;4.90;90.40;;;;;;5114006;28;20039;-52
2022/02/26 21:53:44;;;;;;;12.38;4.00;;;4.90;90.50;;;;;;5113897;28;20047;-50
2022/02/26 21:56:11;;;;;;;12.50;4.35;;;4.80;90.50;;;;;;5113712;28;20086;-51
2022/02/26 21:58:38;;;;;;;9.85;4.03;;;4.90;90.50;;;;;;5113587;28;20105;-52
2022/02/26 22:01:05;;;;;;;11.40;4.20;;;4.80;90.50;;;;;;5113755;28;20039;-52
2022/02/26 22:03:34;;;;;;;10.80;4.35;;;4.80;90.60;;;;;;5113751;28;20043;-48
2022/02/26 22:06:04;;;;;;;13.52;3.80;;;4.80;90.70;;;;;;5113659;28;20050;-51
2022/02/26 22:08:31;;;;;;;11.07;4.40;;;4.80;90.80;;;;;;5113770;28;20089;-48
2022/02/26 22:10:58;;;;;;;14.70;4.68;;;4.80;91.00;;;;;;5113457;28;20053;-48
2022/02/26 22:13:25;;;;;;;9.90;3.97;;;4.80;91.00;;;;;;5113372;28;20118;-51
2022/02/26 22:15:52;;;;;;;13.10;3.95;;;4.80;91.10;;;;;;5112382;28;20490;-46
2022/02/26 22:18:19;;;;;;;12.18;3.90;;;4.80;91.10;;;;;;5113392;28;20131;-48
2022/02/26 22:20:45;;;;;;;10.35;3.58;;;4.70;91.10;;;;;;5113408;28;20050;-48
2022/02/26 22:23:12;;;;;;;17.13;4.00;;;4.80;91.20;;;;;;5113666;28;20401;-46
2022/02/26 22:25:39;;;;;;;8.32;3.40;;;4.70;91.20;;;;;;5113565;28;20040;-44
2022/02/26 22:28:06;;;;;;;9.45;3.50;;;4.70;91.20;;;;;;5113356;28;20126;-46
2022/02/26 22:30:34;;;;;;;12.40;3.72;;;4.70;91.20;;;;;;5113296;28;20040;-46
2022/02/26 22:33:01;;;;;;;12.00;4.25;;;4.70;91.20;;;;;;5113546;28;20420;-49
2022/02/26 22:35:36;;;;;;;11.93;4.05;;;4.70;91.20;;;;;;5112767;28;20331;-53
2022/02/26 22:38:03;;;;;;;12.82;4.40;;;4.70;91.30;;;;;;5113552;28;20047;-51
2022/02/26 22:40:30;;;;;;;14.70;3.83;;;4.60;91.30;;;;;;5113079;28;20043;-49
2022/02/26 22:42:58;;;;;;;9.27;3.50;;;4.60;91.30;;;;;;5113311;28;20039;-53
2022/02/26 22:45:26;;;;;;;10.25;3.92;;;4.60;91.20;;;;;;5112196;28;20167;-50
2022/02/26 22:47:52;;;;;;;13.70;3.55;;;4.60;91.20;;;;;;5113220;28;20039;-48
2022/02/26 22:50:19;;;;;;;11.65;3.47;;;4.50;91.20;;;;;;5113259;28;20404;-47
2022/02/26 22:52:47;;;;;;;11.73;4.07;;;4.50;91.20;;;;;;5113249;28;20066;-48
2022/02/26 22:55:14;;;;;;;10.50;3.28;;;4.50;91.30;;;;;;5111696;28;20044;-47
2022/02/26 22:57:41;;;;;;;9.95;3.00;;;4.50;91.20;;;;;;5113128;28;20081;-54
2022/02/26 23:00:07;;;;;;;8.80;3.33;;;4.50;91.10;;;;;;5113559;28;20090;-49
2022/02/26 23:02:34;;;;;;;12.50;3.42;;;4.50;91.10;;;;;;5113210;28;20035;-51
2022/02/26 23:05:01;;;;;;;13.25;3.38;;;4.50;91.10;;;;;;5113069;28;20051;-52